Time;durP1;ratioP1;P1;durP2;ratioP2;P2;SDS_P1;SDS_P2;PMS_P1;PMS_P2;Temp;Humidity;BMP_temperature;BMP_pressure;BME280_temperature;BME280_humidity;BME280_pressure;Samples;Min_cycle;Max_cycle;Signal;HPM_P1;HPM_P2
2021/11/16 00:04:35;;;;;;;47.95;25.25;;;;;;;6.54;67.62;100634.22;10383614;28;20132;-65
2021/11/16 00:09:37;;;;;;;51.72;26.27;;;;;;;6.61;67.56;100640.94;10382530;28;20553;-65
2021/11/16 00:14:39;;;;;;;63.53;28.92;;;;;;;6.69;67.44;100633.72;10382665;28;20060;-65
2021/11/16 00:19:42;;;;;;;46.88;25.42;;;;;;;6.61;67.64;100625.34;10383148;28;20140;-65
2021/11/16 00:25:18;;;;;;;50.80;26.38;;;;;;;6.58;67.44;100626.28;10382560;28;20516;-65
2021/11/16 00:30:08;;;;;;;40.72;22.77;;;;;;;6.53;67.50;100635.13;10382862;28;20045;-64
2021/11/16 00:35:10;;;;;;;43.42;23.48;;;;;;;6.51;67.81;100634.31;10383579;28;20049;-64
2021/11/16 00:40:18;;;;;;;65.70;28.42;;;;;;;6.59;67.90;100629.72;10386817;28;20056;-65
2021/11/16 00:45:20;;;;;;;53.38;26.60;;;;;;;6.62;67.69;100637.41;10391232;28;20054;-65
2021/11/16 00:50:22;;;;;;;60.17;28.75;;;;;;;6.73;67.76;100632.72;10391540;28;20476;-64
2021/11/16 00:55:24;;;;;;;92.85;32.97;;;;;;;6.80;67.81;100626.41;10388350;28;20057;-64
2021/11/16 01:00:27;;;;;;;55.40;27.00;;;;;;;6.85;67.58;100621.91;10390628;28;20055;-64
2021/11/16 01:05:29;;;;;;;69.38;29.17;;;;;;;6.81;67.39;100615.13;10390112;28;20419;-64
2021/11/16 01:10:31;;;;;;;57.17;27.25;;;;;;;6.74;67.41;100619.66;10387278;28;20500;-65
2021/11/16 01:15:36;;;;;;;51.67;26.67;;;;;;;6.69;67.73;100607.72;10387756;28;20143;-64
2021/11/16 01:20:39;;;;;;;55.08;26.92;;;;;;;6.64;67.56;100602.69;10388610;28;20136;-64
2021/11/16 01:25:44;;;;;;;56.65;27.48;;;;;;;6.70;67.70;100591.22;10388062;28;20068;-65
2021/11/16 01:30:49;;;;;;;58.47;27.05;;;;;;;6.70;67.58;100596.41;10388533;28;20093;-65
2021/11/16 01:35:51;;;;;;;55.15;27.08;;;;;;;6.58;67.76;100595.09;10388243;28;20580;-64
2021/11/16 01:40:53;;;;;;;69.53;28.13;;;;;;;6.66;67.86;100594.81;10387479;28;20045;-64
2021/11/16 01:45:56;;;;;;;60.05;26.77;;;;;;;6.74;67.73;100585.88;10387365;28;20132;-64
2021/11/16 01:50:58;;;;;;;55.65;26.98;;;;;;;6.72;67.60;100592.88;10388227;28;20406;-65
2021/11/16 01:56:01;;;;;;;55.58;26.95;;;;;;;6.75;67.62;100591.94;10386882;28;20052;-64
2021/11/16 02:01:03;;;;;;;58.92;27.00;;;;;;;6.74;67.45;100587.63;10386498;28;20052;-64
2021/11/16 02:06:29;;;;;;;54.78;26.10;;;;;;;6.74;67.42;100585.03;10386436;28;20057;-64
2021/11/16 02:11:31;;;;;;;53.28;25.75;;;;;;;6.86;67.43;100580.25;10386685;28;20132;-64
2021/11/16 02:16:35;;;;;;;71.32;28.83;;;;;;;6.90;67.31;100581.00;10385918;28;20505;-64
2021/11/16 02:21:37;;;;;;;69.75;27.75;;;;;;;6.90;67.46;100573.19;10387173;28;20056;-64
2021/11/16 02:26:39;;;;;;;96.93;31.02;;;;;;;6.88;67.60;100568.06;10385436;28;20053;-64
2021/11/16 02:31:43;;;;;;;101.90;31.67;;;;;;;6.91;67.45;100559.31;10385599;28;20445;-64
2021/11/16 02:36:46;;;;;;;77.95;29.67;;;;;;;6.88;67.67;100556.81;10384932;28;20296;-64
2021/11/16 02:41:53;;;;;;;65.65;27.80;;;;;;;6.77;67.96;100556.34;10385811;28;20053;-64
2021/11/16 02:46:55;;;;;;;58.75;26.38;;;;;;;6.73;67.62;100552.16;10384901;28;20413;-64
2021/11/16 02:51:56;;;;;;;68.35;27.65;;;;;;;6.71;67.97;100546.16;10385583;28;20413;-64
2021/11/16 02:57:04;;;;;;;79.00;29.67;;;;;;;6.78;67.78;100537.22;10384659;28;20130;-64
2021/11/16 03:02:07;;;;;;;66.18;27.48;;;;;;;6.89;67.68;100537.72;10385183;28;20053;-64
2021/11/16 03:07:10;;;;;;;82.32;29.55;;;;;;;6.82;67.81;100534.47;10391526;28;20501;-64
2021/11/16 03:12:12;;;;;;;87.43;32.13;;;;;;;6.78;67.84;100535.47;10391199;28;20426;-64
2021/11/16 03:17:14;;;;;;;152.27;35.97;;;;;;;6.80;67.81;100535.41;10385524;28;20061;-64
2021/11/16 03:22:16;;;;;;;59.53;27.23;;;;;;;6.80;67.75;100532.81;10390595;28;20293;-64
2021/11/16 03:27:21;;;;;;;61.65;27.60;;;;;;;6.81;67.57;100525.00;10391027;28;20055;-64
2021/11/16 03:32:30;;;;;;;67.90;28.33;;;;;;;6.82;67.61;100526.66;10386876;28;20048;-64
2021/11/16 03:37:43;;;;;;;58.28;26.00;;;;;;;6.82;67.70;100526.66;10390525;28;20049;-64
2021/11/16 03:42:47;;;;;;;64.57;26.60;;;;;;;6.90;67.75;100524.66;10390565;28;20472;-64
2021/11/16 03:47:50;;;;;;;54.88;26.33;;;;;;;6.92;67.36;100522.84;10391247;28;20143;-64
2021/11/16 03:52:54;;;;;;;64.43;27.15;;;;;;;6.94;67.46;100518.44;10391360;28;20293;-64
2021/11/16 03:57:57;;;;;;;58.35;27.08;;;;;;;6.94;67.34;100505.44;10389671;28;20068;-63
2021/11/16 04:02:59;;;;;;;53.00;25.48;;;;;;;6.88;67.23;100499.59;10389054;28;20351;-64
2021/11/16 04:08:01;;;;;;;59.15;26.58;;;;;;;6.89;67.44;100501.31;10386675;28;20215;-64
2021/11/16 04:13:03;;;;;;;61.50;27.67;;;;;;;6.70;67.57;100495.06;10383317;28;20061;-63
2021/11/16 04:18:06;;;;;;;57.30;25.58;;;;;;;6.55;67.91;100509.41;10383439;28;20239;-62
2021/11/16 04:23:10;;;;;;;48.20;23.67;;;;;;;6.52;68.10;100512.13;10384190;28;20576;-62
2021/11/16 04:28:13;;;;;;;42.95;22.88;;;;;;;6.49;67.78;100511.41;10383735;28;20057;-62
2021/11/16 04:33:16;;;;;;;43.15;22.60;;;;;;;6.34;67.46;100510.16;10384157;28;20059;-62
2021/11/16 04:38:19;;;;;;;50.30;25.33;;;;;;;6.22;68.06;100520.91;10383810;28;20041;-62
2021/11/16 04:43:25;;;;;;;60.33;27.13;;;;;;;6.33;67.95;100511.03;10383414;28;20045;-62
2021/11/16 04:48:37;;;;;;;53.72;25.38;;;;;;;6.34;67.83;100511.03;10383820;28;20474;-62
2021/11/16 05:04:16;;;;;;;53.80;24.38;;;;;;;6.36;68.17;100495.38;10383401;28;20700;-62
2021/11/16 05:09:18;;;;;;;48.55;24.02;;;;;;;6.37;68.02;100489.25;10383084;28;20045;-65
2021/11/16 05:14:20;;;;;;;55.03;25.27;;;;;;;6.38;68.19;100492.72;10382929;28;20362;-62
2021/11/16 05:19:22;;;;;;;61.38;26.50;;;;;;;6.38;68.31;100490.13;10383718;28;20045;-62
2021/11/16 05:24:25;;;;;;;81.05;29.40;;;;;;;6.42;68.27;100491.72;10383977;28;20508;-63
2021/11/16 05:29:26;;;;;;;67.13;27.83;;;;;;;6.48;68.06;100494.09;10390051;28;20049;-63
2021/11/16 05:34:28;;;;;;;56.45;25.60;;;;;;;6.59;68.07;100495.44;10390398;28;20056;-63
2021/11/16 05:39:30;;;;;;;52.20;25.30;;;;;;;6.63;67.62;100498.78;10389560;28;20135;-63
2021/11/16 05:44:32;;;;;;;50.22;24.05;;;;;;;6.58;67.70;100509.31;10389006;28;20053;-63
2021/11/16 05:49:34;;;;;;;48.90;24.95;;;;;;;6.60;67.49;100504.06;10388984;28;20055;-63
2021/11/16 05:54:36;;;;;;;64.65;27.17;;;;;;;6.69;67.31;100506.38;10387608;28;20055;-63
2021/11/16 05:59:38;;;;;;;50.40;24.65;;;;;;;6.64;67.33;100511.72;10388115;28;20041;-63
2021/11/16 06:04:40;;;;;;;54.08;25.17;;;;;;;6.55;67.54;100517.22;10388651;28;20144;-63
2021/11/16 06:09:43;;;;;;;51.80;25.80;;;;;;;6.60;67.73;100514.47;10388680;28;20050;-63
2021/11/16 06:14:45;;;;;;;52.97;24.95;;;;;;;6.68;67.65;100509.84;10388455;28;20053;-63
2021/11/16 06:19:49;;;;;;;48.60;24.88;;;;;;;6.71;66.95;100520.16;10388259;28;20494;-63
2021/11/16 06:24:50;;;;;;;46.97;23.67;;;;;;;6.64;67.17;100523.84;10388060;28;20528;-64
2021/11/16 06:29:52;;;;;;;48.95;24.08;;;;;;;6.64;67.20;100539.44;10388318;28;20059;-64
2021/11/16 06:34:54;;;;;;;58.22;26.40;;;;;;;6.57;67.04;100538.81;10388183;28;20053;-63
2021/11/16 06:39:55;;;;;;;58.03;26.23;;;;;;;6.50;67.37;100544.25;10387958;28;20543;-63
2021/11/16 06:44:58;;;;;;;51.33;25.20;;;;;;;6.32;67.94;100556.13;10387657;28;20060;-63
2021/11/16 06:50:00;;;;;;;56.00;24.83;;;;;;;6.36;67.82;100562.91;10387931;28;20057;-63
2021/11/16 06:55:07;;;;;;;46.08;23.55;;;;;;;6.52;67.71;100558.91;10386220;28;20140;-64
2021/11/16 07:00:10;;;;;;;60.42;25.02;;;;;;;6.68;67.51;100549.69;10386505;28;20071;-64
2021/11/16 07:05:12;;;;;;;51.03;24.48;;;;;;;6.74;67.27;100543.44;10386644;28;20055;-63
2021/11/16 07:10:19;;;;;;;56.90;24.67;;;;;;;6.72;67.14;100547.84;10385807;28;20103;-64
2021/11/16 07:15:22;;;;;;;51.92;23.75;;;;;;;6.66;67.04;100554.09;10386633;28;20136;-63
2021/11/16 07:20:24;;;;;;;50.28;23.73;;;;;;;6.60;67.26;100551.72;10385471;28;20053;-63
2021/11/16 07:25:27;;;;;;;56.83;25.45;;;;;;;6.75;67.18;100569.41;10386058;28;20045;-64
2021/11/16 07:30:32;;;;;;;53.80;25.20;;;;;;;6.81;67.03;100565.72;10386117;28;20058;-63
2021/11/16 07:35:35;;;;;;;64.82;26.10;;;;;;;6.88;67.21;100569.78;10384384;28;20409;-63
2021/11/16 07:40:41;;;;;;;68.15;28.80;;;;;;;6.91;67.22;100574.91;10384687;28;20083;-64
2021/11/16 07:45:52;;;;;;;68.50;27.90;;;;;;;6.94;67.23;100564.38;10385177;28;20052;-64
2021/11/16 07:50:58;;;;;;;76.82;28.35;;;;;;;6.99;67.16;100565.94;10384352;28;20470;-63
2021/11/16 07:56:13;;;;;;;69.25;28.90;;;;;;;6.95;67.22;100568.69;10384641;28;20049;-62
2021/11/16 08:01:22;;;;;;;60.70;26.05;;;;;;;6.94;67.08;100573.03;10384173;28;20037;-63
2021/11/16 08:06:32;;;;;;;57.67;26.40;;;;;;;6.99;67.08;100559.88;10383355;28;20140;-64
2021/11/16 08:11:38;;;;;;;52.80;24.70;;;;;;;7.06;66.94;100566.59;10384653;28;20072;-63
2021/11/16 08:16:49;;;;;;;51.95;23.70;;;;;;;7.06;67.02;100563.97;10381480;28;20057;-63
2021/11/16 08:22:00;;;;;;;52.85;25.05;;;;;;;7.01;67.02;100563.28;10381767;28;20061;-63
2021/11/16 08:27:15;;;;;;;58.00;25.30;;;;;;;7.03;67.08;100558.88;10383496;28;20243;-64
2021/11/16 08:32:23;;;;;;;43.83;21.65;;;;;;;6.93;66.78;100565.31;10381248;28;20562;-64
2021/11/16 08:37:35;;;;;;;55.75;24.77;;;;;;;7.01;66.95;100558.94;10381927;28;20801;-64
2021/11/16 08:42:39;;;;;;;45.78;22.10;;;;;;;7.10;66.63;100558.59;10383292;28;20053;-64
2021/11/16 08:47:54;;;;;;;54.97;23.88;;;;;;;7.08;66.53;100549.19;10383418;28;20148;-64
2021/11/16 08:52:58;;;;;;;57.22;26.33;;;;;;;7.09;66.72;100553.47;10382923;28;20049;-64
2021/11/16 08:58:02;;;;;;;53.67;24.95;;;;;;;7.01;67.16;100555.47;10381895;28;20053;-64
2021/11/16 09:03:10;;;;;;;65.25;27.25;;;;;;;6.91;67.48;100552.38;10390165;28;20087;-64
2021/11/16 09:08:26;;;;;;;51.83;24.77;;;;;;;6.99;67.39;100554.69;10390976;28;20156;-64
2021/11/16 09:13:31;;;;;;;62.10;25.75;;;;;;;7.14;67.06;100554.16;10389902;28;20046;-64
2021/11/16 09:18:42;;;;;;;54.08;24.75;;;;;;;7.22;66.91;100546.06;10376527;28;20516;-63
2021/11/16 09:24:04;;;;;;;55.47;24.65;;;;;;;7.29;66.81;100548.38;10388845;28;20063;-63
2021/11/16 09:29:05;;;;;;;;;;;;;;;7.06;67.28;100551.81;10390138;28;20053;-73
2021/11/16 09:34:24;;;;;;;55.28;24.40;;;;;;;7.25;66.42;100557.19;10386664;28;20211;-73
2021/11/16 09:39:31;;;;;;;37.65;21.05;;;;;;;7.39;66.20;100557.53;10389335;28;20389;-72
2021/11/16 09:44:43;;;;;;;44.28;21.75;;;;;;;7.40;65.69;100550.59;10389352;28;20490;-73
2021/11/16 09:49:56;;;;;;;50.95;23.98;;;;;;;7.25;66.72;100551.16;10387797;28;20058;-73
2021/11/16 09:55:06;;;;;;;55.20;24.45;;;;;;;7.33;66.34;100549.09;10383450;28;20053;-73
2021/11/16 10:00:33;;;;;;;52.30;24.20;;;;;;;7.33;66.47;100551.72;10385056;28;20188;-72
2021/11/16 10:05:43;;;;;;;57.25;24.92;;;;;;;7.48;66.28;100549.41;10388234;28;20172;-72
2021/11/16 10:10:52;;;;;;;45.25;22.65;;;;;;;7.59;66.20;100542.03;10384567;28;20045;-71
2021/11/16 10:15:56;;;;;;;48.05;23.20;;;;;;;7.63;66.02;100543.59;10388029;28;20049;-72
2021/11/16 10:20:58;;;;;;;46.10;23.95;;;;;;;7.72;65.56;100540.66;10388474;28;20053;-73
2021/11/16 10:26:01;;;;;;;45.78;22.48;;;;;;;7.76;65.83;100529.22;10386736;28;20431;-74
2021/11/16 10:31:04;;;;;;;56.25;24.73;;;;;;;7.67;65.77;100528.75;10388615;28;20537;-73
2021/11/16 10:36:09;;;;;;;44.10;22.88;;;;;;;7.61;66.05;100529.81;10387319;28;20132;-73
2021/11/16 10:41:16;;;;;;;51.10;24.50;;;;;;;7.57;65.80;100525.63;10386146;28;20050;-73
2021/11/16 10:46:21;;;;;;;48.50;23.50;;;;;;;7.48;66.03;100526.00;10386159;28;20192;-71
2021/11/16 10:51:31;;;;;;;43.20;21.15;;;;;;;7.46;65.83;100525.19;10388515;28;20489;-71
2021/11/16 10:56:38;;;;;;;41.20;21.90;;;;;;;7.50;65.93;100526.78;10387286;28;20045;-72
2021/11/16 11:01:48;;;;;;;41.83;21.73;;;;;;;7.51;65.55;100505.03;10387865;28;20045;-71
2021/11/16 11:06:51;;;;;;;;;;;;;;;7.10;66.34;100505.75;10388272;28;20532;-72
2021/11/16 11:11:55;;;;;;;36.88;20.05;;;;;;;7.19;65.90;100493.25;10387461;28;19964;-72
2021/11/16 11:17:05;;;;;;;38.00;19.67;;;;;;;7.32;65.66;100491.03;10386603;28;20513;-71
2021/11/16 11:22:28;;;;;;;39.08;19.83;;;;;;;7.52;65.73;100482.47;10385141;28;20045;-71
2021/11/16 11:27:38;;;;;;;28.42;16.63;;;;;;;7.62;65.22;100478.59;10386133;28;20052;-73
2021/11/16 11:32:42;;;;;;;36.25;17.52;;;;;;;7.62;64.91;100476.00;10385578;28;20057;-73
2021/11/16 11:37:45;;;;;;;31.00;17.17;;;;;;;7.64;64.33;100471.56;10386817;28;20056;-73
2021/11/16 11:42:58;;;;;;;29.85;16.40;;;;;;;7.54;64.62;100462.44;10386195;28;20542;-73
2021/11/16 11:48:29;;;;;;;28.65;15.80;;;;;;;7.64;64.52;100450.75;10386512;28;21019;-73
2021/11/16 11:53:34;;;;;;;33.22;18.02;;;;;;;7.55;64.94;100451.97;10385681;28;20145;-73
2021/11/16 11:58:41;;;;;;;30.27;17.35;;;;;;;7.58;64.29;100441.44;10385315;28;20044;-73
2021/11/16 12:03:45;;;;;;;32.55;17.60;;;;;;;7.67;64.78;100435.03;10385570;28;20505;-73
2021/11/16 12:08:47;;;;;;;40.55;21.02;;;;;;;7.79;64.70;100430.16;10384116;28;20060;-73
2021/11/16 12:13:52;;;;;;;39.30;21.83;;;;;;;7.78;64.79;100432.81;10385071;28;20219;-73
2021/11/16 12:19:03;;;;;;;38.13;21.95;;;;;;;7.78;64.93;100432.81;10385520;28;20046;-72
2021/11/16 12:24:12;;;;;;;34.28;20.35;;;;;;;7.75;64.90;100425.16;10383581;28;20060;-73
2021/11/16 12:29:17;;;;;;;34.60;18.83;;;;;;;7.73;64.58;100430.41;10384957;28;20057;-73
2021/11/16 12:34:35;;;;;;;30.42;17.67;;;;;;;7.61;64.09;100430.88;10387941;28;20504;-72
2021/11/16 12:39:58;;;;;;;35.28;18.90;;;;;;;7.61;64.91;100422.25;10392196;28;20057;-73
2021/11/16 12:45:00;;;;;;;30.48;17.63;;;;;;;7.73;64.56;100409.56;10393267;28;20053;-73
2021/11/16 12:50:12;;;;;;;28.23;16.48;;;;;;;7.73;63.90;100395.72;10391571;28;20057;-73
2021/11/16 12:55:27;;;;;;;30.23;15.88;;;;;;;7.64;64.28;100407.34;10392365;28;20049;-73
2021/11/16 13:00:38;;;;;;;26.92;14.82;;;;;;;7.61;64.29;100404.03;10392403;28;20061;-73
2021/11/16 13:05:43;;;;;;;25.90;15.30;;;;;;;7.52;64.33;100407.00;10391646;28;20079;-72
2021/11/16 13:10:49;;;;;;;23.60;14.13;;;;;;;7.50;64.30;100403.59;10391464;28;20575;-75
2021/11/16 13:15:56;;;;;;;26.10;15.10;;;;;;;7.66;64.19;100389.91;10391161;28;20123;-75
2021/11/16 13:21:07;;;;;;;20.48;12.82;;;;;;;7.65;62.95;100388.22;10392328;28;20068;-73
2021/11/16 13:26:24;;;;;;;11.98;7.80;;;;;;;7.39;62.64;100383.22;10391469;28;20143;-74
2021/11/16 13:31:32;;;;;;;20.95;12.27;;;;;;;7.41;64.11;100378.78;10390717;28;20089;-75
2021/11/16 13:36:34;;;;;;;23.58;13.93;;;;;;;7.59;63.86;100370.25;10391540;28;20675;-75
2021/11/16 13:41:47;;;;;;;26.42;14.40;;;;;;;7.58;64.01;100358.16;10390736;28;20049;-75
2021/11/16 13:47:02;;;;;;;22.50;13.55;;;;;;;7.56;64.22;100359.13;10384558;28;20141;-75
2021/11/16 13:52:16;;;;;;;23.00;13.60;;;;;;;7.49;63.86;100363.72;10379358;28;20592;-75
2021/11/16 13:57:22;;;;;;;23.95;12.30;;;;;;;7.51;63.63;100363.66;10381093;28;20154;-74
2021/11/16 14:02:24;;;;;;;18.33;12.10;;;;;;;7.42;63.81;100366.63;10385176;28;20049;-75
2021/11/16 14:07:26;;;;;;;20.40;11.50;;;;;;;7.44;63.37;100375.22;10388369;28;20432;-75
2021/11/16 14:12:28;;;;;;;20.08;12.18;;;;;;;7.43;63.30;100371.75;10387647;28;20417;-75
2021/11/16 14:17:29;;;;;;;22.60;12.15;;;;;;;7.27;63.59;100372.44;10388426;28;20049;-74
2021/11/16 14:22:36;;;;;;;22.80;12.52;;;;;;;7.18;64.01;100373.66;10387411;28;20144;-74
2021/11/16 14:27:39;;;;;;;19.10;11.68;;;;;;;7.17;64.21;100367.59;10388488;28;20054;-75
2021/11/16 14:32:41;;;;;;;19.48;11.82;;;;;;;7.30;64.52;100372.31;10386358;28;20049;-75
2021/11/16 14:37:51;;;;;;;20.88;11.52;;;;;;;7.34;64.66;100369.53;10378488;28;20558;-74
2021/11/16 14:42:54;;;;;;;22.60;12.80;;;;;;;7.42;64.85;100367.50;10386720;28;20080;-75
2021/11/16 14:48:05;;;;;;;22.80;13.30;;;;;;;7.45;64.80;100356.94;10386051;28;20219;-74
2021/11/16 14:53:14;;;;;;;21.40;13.07;;;;;;;7.45;64.94;100353.50;10387577;28;20041;-74
2021/11/16 14:58:16;;;;;;;20.58;12.25;;;;;;;7.47;64.75;100355.13;10383342;28;20539;-74
2021/11/16 15:03:18;;;;;;;23.95;13.45;;;;;;;7.52;65.13;100345.38;10385649;28;20046;-74
2021/11/16 15:08:27;;;;;;;23.55;12.60;;;;;;;7.51;64.72;100351.47;10384561;28;20392;-74
2021/11/16 15:13:31;;;;;;;19.63;12.43;;;;;;;7.43;64.94;100345.75;10385928;28;20050;-74
2021/11/16 15:18:33;;;;;;;26.05;14.57;;;;;;;7.45;65.03;100346.53;10385533;28;20521;-74
2021/11/16 15:23:47;;;;;;;23.38;14.45;;;;;;;7.44;65.09;100354.41;10385845;28;20494;-74
2021/11/16 15:29:05;;;;;;;29.50;15.35;;;;;;;7.39;65.39;100356.31;10384648;28;20492;-73
2021/11/16 15:34:07;;;;;;;29.38;16.17;;;;;;;7.36;65.54;100356.47;10384249;28;20497;-74
2021/11/16 15:39:11;;;;;;;25.42;14.70;;;;;;;7.31;65.45;100348.84;10380552;28;20046;-74
2021/11/16 15:44:56;;;;;;;22.55;11.48;;;;;;;7.27;65.53;100347.28;10384143;28;20091;-74
2021/11/16 16:01:09;;;;;;;23.63;11.88;;;;;;;7.24;65.71;100363.00;10382072;28;20076;-73
2021/11/16 16:06:13;;;;;;;15.52;9.85;;;;;;;7.07;65.63;100360.22;10382059;28;20050;-74
2021/11/16 16:11:19;;;;;;;15.25;9.13;;;;;;;7.01;65.94;100356.09;10384143;28;20484;-74
2021/11/16 16:16:27;;;;;;;12.60;6.72;;;;;;;6.95;65.32;100356.34;10380904;28;20061;-74
2021/11/16 16:21:32;;;;;;;10.68;6.40;;;;;;;6.91;65.67;100352.16;10384744;28;20060;-73
2021/11/16 16:26:34;;;;;;;12.35;6.32;;;;;;;6.96;65.55;100355.41;10383839;28;20067;-74
2021/11/16 16:31:41;;;;;;;14.15;8.00;;;;;;;6.92;65.82;100350.38;10384307;28;20053;-73
2021/11/16 16:36:44;;;;;;;14.13;9.50;;;;;;;6.94;65.89;100352.03;10383908;28;20125;-74
2021/11/16 16:41:49;;;;;;;15.50;8.50;;;;;;;6.99;66.00;100360.50;10382853;28;20087;-74
2021/11/16 16:46:54;;;;;;;57.45;40.58;;;;;;;6.97;65.52;100364.06;10383542;28;20049;-74
2021/11/16 16:51:57;;;;;;;13.30;10.40;;;;;;;6.93;65.39;100365.09;10383135;28;20436;-74
2021/11/16 16:56:59;;;;;;;14.88;9.45;;;;;;;6.98;65.50;100363.16;10381766;28;20515;-74
2021/11/16 17:02:06;;;;;;;15.05;9.88;;;;;;;7.03;65.34;100362.09;10380696;28;20136;-73
2021/11/16 17:07:08;;;;;;;13.95;10.13;;;;;;;7.07;65.48;100361.06;10383068;28;20056;-74
2021/11/16 17:12:10;;;;;;;18.05;10.35;;;;;;;7.04;65.17;100357.75;10382211;28;20053;-74
2021/11/16 17:17:12;;;;;;;12.60;7.97;;;;;;;7.06;65.34;100348.13;10383274;28;20064;-74
2021/11/16 17:22:15;;;;;;;13.77;8.00;;;;;;;7.06;65.36;100363.72;10388859;28;20417;-74
2021/11/16 17:27:18;;;;;;;15.52;8.80;;;;;;;6.96;65.55;100360.63;10391823;28;20059;-74
2021/11/16 17:32:20;;;;;;;17.58;11.00;;;;;;;6.85;65.87;100364.53;10391411;28;20054;-73
2021/11/16 17:37:22;;;;;;;13.00;8.13;;;;;;;6.78;65.94;100358.72;10390966;28;20056;-74
2021/11/16 17:42:27;;;;;;;17.77;10.75;;;;;;;6.62;66.30;100357.59;10374100;28;20049;-73
2021/11/16 17:47:29;;;;;;;15.98;9.05;;;;;;;6.59;66.73;100356.88;10390469;28;20050;-74
2021/11/16 17:52:31;;;;;;;16.05;9.50;;;;;;;6.61;66.64;100360.25;10386327;28;20410;-73
2021/11/16 17:57:34;;;;;;;16.40;9.35;;;;;;;6.69;66.72;100351.28;10386932;28;20319;-73
2021/11/16 18:02:40;;;;;;;15.38;9.23;;;;;;;6.71;66.81;100354.66;10384846;28;20056;-73
2021/11/16 18:07:57;;;;;;;15.18;10.18;;;;;;;6.52;67.01;100353.63;10378637;28;20486;-73
2021/11/16 18:13:01;;;;;;;16.33;12.20;;;;;;;6.44;67.27;100352.22;10386575;28;20125;-74
2021/11/16 18:18:06;;;;;;;17.05;11.02;;;;;;;6.49;67.32;100358.09;10386534;28;20053;-74
2021/11/16 18:23:08;;;;;;;17.30;12.18;;;;;;;6.53;67.16;100341.50;10387644;28;20413;-74
2021/11/16 18:28:10;;;;;;;16.05;9.35;;;;;;;6.55;67.31;100350.09;10389506;28;20065;-73
2021/11/16 18:33:13;;;;;;;15.07;9.52;;;;;;;6.60;67.13;100349.00;10387553;28;20409;-74
2021/11/16 18:38:21;;;;;;;16.92;9.50;;;;;;;6.59;66.92;100351.66;10389146;28;20590;-74
2021/11/16 18:43:37;;;;;;;15.65;10.18;;;;;;;6.55;67.17;100344.88;10389009;28;20809;-74
2021/11/16 18:48:48;;;;;;;17.25;10.45;;;;;;;6.61;67.05;100339.47;10388534;28;20049;-74
2021/11/16 18:53:50;;;;;;;14.38;9.40;;;;;;;6.59;67.08;100341.28;10388430;28;20053;-73
2021/11/16 18:58:51;;;;;;;16.80;10.80;;;;;;;6.59;66.90;100341.28;10403677;28;20050;-74
2021/11/16 19:03:53;;;;;;;18.95;11.48;;;;;;;6.62;66.76;100338.53;10385036;28;20067;-73
2021/11/16 19:08:55;;;;;;;19.77;13.07;;;;;;;6.62;66.56;100347.19;10386194;28;20528;-74
2021/11/16 19:13:57;;;;;;;18.50;11.90;;;;;;;6.56;66.77;100347.41;10387342;28;20071;-73
2021/11/16 19:18:59;;;;;;;21.98;13.00;;;;;;;6.59;66.99;100344.72;10386763;28;20430;-74
2021/11/16 19:24:00;;;;;;;18.92;11.63;;;;;;;6.65;67.07;100351.44;10387305;28;20053;-73
2021/11/16 19:29:02;;;;;;;20.88;12.20;;;;;;;6.65;66.96;100348.84;10386506;28;20107;-74
2021/11/16 19:34:04;;;;;;;17.83;11.88;;;;;;;6.56;67.08;100354.34;10387140;28;20041;-74
2021/11/16 19:44:12;;;;;;;20.73;12.23;;;;;;;6.63;67.28;100348.91;10385852;28;20174;-74
2021/11/16 19:49:14;;;;;;;17.63;11.48;;;;;;;6.53;67.38;100347.53;10386129;28;20053;-74
2021/11/16 19:54:17;;;;;;;19.33;12.77;;;;;;;6.47;67.48;100349.53;10385986;28;20054;-73
2021/11/16 19:59:20;;;;;;;16.58;10.18;;;;;;;6.52;67.34;100351.03;10385445;28;20057;-74
2021/11/16 20:04:22;;;;;;;16.48;10.55;;;;;;;6.49;67.45;100355.50;10384697;28;20484;-74
2021/11/16 20:09:24;;;;;;;19.20;10.88;;;;;;;6.58;67.00;100356.00;10385667;28;20057;-74
2021/11/16 20:14:26;;;;;;;15.88;10.88;;;;;;;6.52;67.13;100363.16;10384814;28;20330;-74
2021/11/16 20:19:28;;;;;;;21.65;11.88;;;;;;;6.46;67.19;100356.47;10385297;28;20048;-74
2021/11/16 20:24:30;;;;;;;18.02;11.27;;;;;;;6.51;67.33;100358.91;10385998;28;20095;-73
2021/11/16 20:29:37;;;;;;;17.38;11.65;;;;;;;6.54;67.22;100359.63;10384714;28;20081;-75
2021/11/16 20:34:50;;;;;;;20.48;12.25;;;;;;;6.53;67.26;100359.69;10384699;28;20055;-74
2021/11/16 20:40:06;;;;;;;23.70;13.20;;;;;;;6.58;67.07;100355.16;10386050;28;20045;-74
2021/11/16 21:00:56;;;;;;;22.77;13.90;;;;;;;6.54;67.22;100356.16;10392472;28;20073;-74
2021/11/16 21:06:00;;;;;;;29.52;14.40;;;;;;;6.58;67.16;100356.00;10392733;28;20151;-74
2021/11/16 21:11:02;;;;;;;20.60;12.75;;;;;;;6.56;67.17;100350.03;10391826;28;20529;-74
2021/11/16 21:16:04;;;;;;;19.98;11.98;;;;;;;6.50;67.38;100346.78;10390609;28;20159;-73
2021/11/16 21:21:09;;;;;;;21.38;13.00;;;;;;;6.37;67.26;100341.19;10390722;28;20581;-73
2021/11/16 21:26:12;;;;;;;18.17;11.85;;;;;;;6.42;67.39;100347.06;10389251;28;20107;-74
2021/11/16 21:31:17;;;;;;;21.23;12.70;;;;;;;6.30;67.82;100340.59;10391778;28;20148;-73
2021/11/16 21:36:19;;;;;;;25.88;14.15;;;;;;;6.44;67.71;100347.00;10391430;28;20045;-61
2021/11/16 21:41:21;;;;;;;27.77;14.05;;;;;;;6.50;67.52;100336.41;10391286;28;20053;-61
2021/11/16 21:46:23;;;;;;;23.70;13.18;;;;;;;6.52;67.46;100337.19;10390912;28;20060;-61
2021/11/16 21:51:26;;;;;;;26.30;13.70;;;;;;;6.52;67.48;100340.66;10389636;28;20456;-62
2021/11/16 21:56:27;;;;;;;23.50;12.85;;;;;;;6.51;67.33;100345.91;10390188;28;20319;-61
2021/11/16 22:01:29;;;;;;;20.33;12.18;;;;;;;6.51;67.32;100348.50;10390529;28;20061;-62
2021/11/16 22:06:32;;;;;;;28.02;14.05;;;;;;;6.56;67.30;100343.97;10389392;28;20434;-62
2021/11/16 22:11:41;;;;;;;25.25;13.75;;;;;;;6.57;67.20;100337.88;10389786;28;20148;-61
2021/11/16 22:16:56;;;;;;;25.02;14.35;;;;;;;6.52;67.48;100334.59;10387524;28;20053;-62
2021/11/16 22:21:58;;;;;;;25.38;13.82;;;;;;;6.46;67.35;100334.81;10387589;28;20084;-61
2021/11/16 22:27:00;;;;;;;29.80;15.43;;;;;;;6.40;67.64;100329.84;10388921;28;20083;-62
2021/11/16 22:32:11;;;;;;;21.75;12.77;;;;;;;6.46;67.64;100317.47;10385961;28;20150;-62
2021/11/16 22:37:13;;;;;;;33.35;15.95;;;;;;;6.52;67.42;100313.81;10386596;28;20064;-62
2021/11/16 22:42:19;;;;;;;26.75;13.80;;;;;;;6.53;67.42;100318.13;10387952;28;20057;-62
2021/11/16 22:47:21;;;;;;;33.05;15.13;;;;;;;6.47;67.63;100320.94;10387552;28;20050;-62
2021/11/16 22:52:23;;;;;;;47.55;17.25;;;;;;;6.48;67.45;100322.63;10388303;28;20059;-62
2021/11/16 22:57:25;;;;;;;28.88;15.00;;;;;;;6.44;67.59;100326.22;10385689;28;20060;-62
